• Join FlightAware (Why Join?)
  • Login
  • US Flag 
10:02PM EDT


 

Airport Tracker/Info


-or-


 

Live Flight TrackerFlight Track Log ✈ SWA718 ✈ 18-Apr-2013 ✈ KMDW - KOMA

Flight Track Log - Related Links

Times and Time Zones

All times are in EDT time to prevent confusion due to time zone crossing. See the SWA718 flight status page for this flight to view local times or setup timezone preferences in your user account.

Time Position Orientation Groundspeed Altitude Reporting Facility
EDT Latitude Longitude Course Direction KTS MPH feet Rate Location/Type
12:07AM 41.7772 -87.8653 283° West 231 266 5,800  Level Chicago Center
12:08AM 41.8183 -87.9708 298° West 278 320 9,600 3,000 Climbing Chicago Center
12:09AM 41.8319 -88.0819 279° West 307 353 12,000 3,360 Climbing Chicago Center
12:10AM 41.8436 -88.1961 278° West 313 360 16,500 3,660 Climbing Chicago Center
12:11AM 41.7413 -88.3973 264° West  Level FlightAware Approximate
12:11AM 41.8614 -88.3119 282° West 317 365 19,500  Level Chicago Center
12:12AM 41.8642 -88.4342 272° West 328 377 22,200 2,280 Climbing Chicago Center
12:13AM 41.8689 -88.5633 273° West 345 397 24,200 1,980 Climbing Chicago Center
12:14AM 41.8739 -88.7008 273° West 367 422 26,300 2,220 Climbing Chicago Center
12:15AM 41.8794 -88.8439 273° West 382 440 28,700 2,400 Climbing Chicago Center
12:16AM 41.8686 -89.0033 265° West 365 420 31,200 1,800 Climbing Chicago Center
12:17AM 41.8594 -89.1411 265° West 370 426 32,400 1,440 Climbing Chicago Center
12:18AM 41.8500 -89.2828 265° West 382 440 34,200 1,620 Climbing Chicago Center
12:19AM 41.8414 -89.4231 265° West 381 438 35,800 840 Climbing Chicago Center
12:20AM 41.8314 -89.5631 265° West 382 440 36,000 60 Climbing Chicago Center
12:21AM 41.8217 -89.7042 265° West 381 438 36,000  Level Chicago Center
12:22AM 41.8111 -89.8433 264° West 379 436 36,000  Level Chicago Center
12:23AM 41.8036 -89.9797 266° West 380 437 36,000  Level Chicago Center
12:24AM 41.7917 -90.1206 264° West 376 433 36,000  Level Chicago Center
12:25AM 41.7825 -90.2569 265° West 376 433 36,000  Level Chicago Center
12:26AM 41.7683 -90.4244 264° West 374 430 36,000  Level Chicago Center
12:27AM 41.7578 -90.5622 264° West 373 429 36,000  Level Chicago Center
12:28AM 41.7464 -90.6978 264° West 374 430 36,000  Level Chicago Center
12:29AM 41.7358 -90.8361 264° West 375 432 36,000  Level Chicago Center
12:30AM 41.7244 -90.9731 264° West 373 429 36,000  Level Chicago Center
12:31AM 41.7125 -91.1122 263° West 375 432 36,000  Level Chicago Center
12:32AM 41.7011 -91.2536 264° West 380 437 36,000  Level Chicago Center
12:33AM 41.6894 -91.3908 264° West 377 434 36,000  Level Chicago Center
12:35AM 41.6769 -91.5308 263° West 380 437 36,000  Level Chicago Center
12:36AM 41.6650 -91.6694 263° West 378 435 36,000  Level Chicago Center
12:37AM 41.6519 -91.8108 263° West 381 438 36,000  Level Chicago Center
12:38AM 41.6397 -91.9525 263° West 384 442 36,000  Level Chicago Center
12:39AM 41.6242 -92.1211 263° West 384 442 36,000  Level Chicago Center
12:40AM 41.6117 -92.2611 263° West 382 440 36,000  Level Chicago Center
12:41AM 41.5975 -92.4017 262° West 383 441 36,000  Level Chicago Center
12:42AM 41.5839 -92.5400 263° West 379 436 36,000  Level Chicago Center
12:43AM 41.5711 -92.6786 263° West 379 436 36,000  Level Minneapolis Center
12:44AM 41.5567 -92.8156 262° West 378 435 36,000  Level Minneapolis Center
12:45AM 41.5433 -92.9528 263° West 377 434 36,000  Level Minneapolis Center
12:46AM 41.5292 -93.0933 262° West 381 438 36,000  Level Minneapolis Center
12:47AM 41.5153 -93.2328 262° West 383 441 36,000  Level Minneapolis Center
12:48AM 41.5003 -93.3728 262° West 383 441 36,000  Level Minneapolis Center
12:49AM 41.4853 -93.5139 262° West 387 445 36,000  Level Minneapolis Center
12:50AM 41.4719 -93.6517 263° West 382 440 36,000 -420 Level Minneapolis Center
12:51AM 41.4531 -93.8228 262° West 389 448 35,200 -2,040 Descending Minneapolis Center
12:52AM 41.4386 -93.9650 262° West 390 449 32,000 -3,300 Descending Minneapolis Center
12:53AM 41.4225 -94.1092 262° West 394 453 28,600 -2,940 Descending Minneapolis Center
12:54AM 41.4072 -94.2486 262° West 393 452 26,100 -2,580 Descending Minneapolis Center
12:55AM 41.3919 -94.3878 262° West 384 442 23,500 -2,580 Descending Minneapolis Center
12:56AM 41.3739 -94.5300 260° West 386 444 20,900 -2,280 Descending Minneapolis Center
12:57AM 41.3567 -94.6692 261° West 385 443 18,900 -2,340 Descending Minneapolis Center
12:58AM 41.3431 -94.7986 262° West 372 428 16,200 -1,440 Descending Minneapolis Center
12:59AM 41.3289 -94.9281 262° West 360 414 16,000 -1,380 Descending Minneapolis Center
01:00AM 41.3133 -95.0608 261° West 361 415 13,500 -2,520 Descending Minneapolis Center
01:01AM 41.2892 -95.1900 256° West 361 415 11,000 -1,740 Descending Minneapolis Center
01:02AM 41.2633 -95.3042 253° West 344 396 10,100 -1,140 Descending Minneapolis Center
01:03AM 41.2408 -95.4350 257° West 255 293 8,500 -1,440 Descending Minneapolis Center
01:04AM 41.2217 -95.4908 245° Southwest 276 318 7,200 -1,920 Descending Minneapolis Center
01:04AM 41.2119 -95.5300 252° West 258 297 6,400 -1,920 Descending Minneapolis Center
01:05AM 41.1897 -95.5764 238° Southwest 264 304 5,300 -1,800 Descending Minneapolis Center
01:05AM 41.1781 -95.6144 248° West 260 299 4,600 -1,320 Descending Minneapolis Center
01:06AM 41.1569 -95.6594 238° Southwest 259 298 4,000 -840 Descending Minneapolis Center
01:06AM 41.1478 -95.6931 250° West 236 272 3,800 -480 Descending Minneapolis Center
01:07AM 41.1539 -95.7531 278° West 166 191 3,400 -480 Descending Minneapolis Center
01:08AM 41.1725 -95.7731 321° Northwest 185 213 3,000 -540 Descending Minneapolis Center
01:08AM 41.1900 -95.7906 323° Northwest 131 151 2,900 -240 Descending Minneapolis Center
01:09AM 41.2103 -95.8081 327° Northwest 155 178 2,800 -480 Descending Minneapolis Center
01:11AM 41.2664 -95.8611 325° Northwest 131 151 1,700 -600 Descending Minneapolis Center
01:11AM 41.2750 -95.8747 310° West 120 138 1,400 -720 Descending Minneapolis Center
01:12AM 41.2933 -95.8858 336° Northwest 124 143 1,000 -660 Descending Minneapolis Center